Cape Balder — V7KA5 — position and weather

sailwx.info

Track history (hours):
 
Tides and Currents Weather Stations Pressure Air Temp Water Temp Dewpoint Dewpoint Depression Visibility Wind Speed Wind Dir Waves Ship Positions

Cape Balder

Last reported at 2015-Jul-31 12:25 UTC. Time now 2015-Jul-31 13:21 UTC.
Position N 33°21' E 014°43'.

Length 274 m; draft 9.1 m.

Type: Ship. MMSI: 538005854.

Date/timePositionNaut miles runAvg speedWind from/ knotsBaromVisibWave heightAir tempDewpointWater temp
2015-Jul-31 12:25N 33°21' E 014°43'8 8.6
2015-Jul-31 11:32N 33°21' E 014°34'9 9.0
2015-Jul-31 10:32N 33°22' E 014°24'1111.1
2015-Jul-31 09:33N 33°19' E 014°36'1414.1
2015-Jul-31 08:33N 33°19' E 014°53'8 8.6
2015-Jul-31 07:33N 33°19' E 015°03'115 7.6
2015-Jul-30 16:32N 32°60' E 012°48'8 7.9
2015-Jul-30 15:31N 32°54' E 012°42'5 5.6
2015-Jul-30 14:33N 32°48' E 012°40'1 0.8
2015-Jul-30 13:34N 32°48' E 012°41'0 0.2
2015-Jul-30 12:32N 32°48' E 012°41'0 0.0
2015-Jul-30 11:29N 32°48' E 012°41'0 0.0
2015-Jul-30 10:19N 32°48' E 012°41'0 0.0
2015-Jul-30 08:18N 32°48' E 012°41'0 0.0
2015-Jul-30 07:27N 32°48' E 012°41'0 0.0
2015-Jul-30 06:33N 32°48' E 012°41'0 0.0
2015-Jul-30 05:32N 32°48' E 012°41'0 0.0
2015-Jul-30 04:26N 32°48' E 012°41'0 0.0
2015-Jul-30 03:31N 32°48' E 012°41'0 0.0
2015-Jul-30 02:31N 32°48' E 012°41'0 0.0
2015-Jul-29 16:30N 32°48' E 012°41'0 0.0
2015-Jul-29 15:29N 32°48' E 012°41'0 0.0
2015-Jul-29 14:32N 32°48' E 012°41'0 0.0
2015-Jul-29 13:31N 32°48' E 012°41'0 0.0
2015-Jul-29 12:31N 32°48' E 012°41'0 0.0
2015-Jul-29 11:31N 32°48' E 012°41'0 0.0
2015-Jul-29 10:33N 32°48' E 012°41'1 0.9
2015-Jul-29 09:33N 32°48' E 012°40'1 0.5
2015-Jul-29 06:32N 32°50' E 012°39'0 0.0
2015-Jul-29 04:19N 32°50' E 012°39'0 0.0
2015-Jul-29 03:27N 32°50' E 012°39'0 0.0
2015-Jul-29 02:30N 32°50' E 012°39'0 0.1
2015-Jul-29 00:29N 32°50' E 012°39'0 0.1
2015-Jul-28 22:23N 32°50' E 012°39'18 9.7
2015-Jul-28 20:31N 32°54' E 012°19'3 1.5
2015-Jul-28 18:22N 32°54' E 012°15'1 0.9
2015-Jul-28 17:33N 32°54' E 012°14'0 0.0
2015-Jul-28 16:33N 32°54' E 012°14'0 0.0
2015-Jul-28 15:29N 32°54' E 012°14'0 0.0
2015-Jul-28 14:14N 32°54' E 012°14'0 0.0
2015-Jul-28 13:31N 32°54' E 012°14'0 0.0
2015-Jul-28 12:28N 32°54' E 012°14'0 0.0
2015-Jul-28 11:31N 32°54' E 012°14'0 0.0
2015-Jul-28 10:33N 32°54' E 012°14'0 0.0
2015-Jul-28 09:33N 32°54' E 012°14'0 0.2
2015-Jul-28 08:33N 32°54' E 012°14'1 0.7
2015-Jul-28 07:32N 32°55' E 012°14'1 1.1
2015-Jul-28 06:33N 32°56' E 012°15'0 0.3
2015-Jul-28 05:33N 32°56' E 012°15'1 1.0
2015-Jul-28 04:33N 32°56' E 012°16'5 4.8
2015-Jul-28 03:31N 32°58' E 012°21'8 7.9
2015-Jul-28 02:33N 33°02' E 012°29'8 7.5
2015-Jul-28 01:33N 33°04' E 012°38'15 7.5
2015-Jul-27 23:33N 33°08' E 012°55'1210.6
2015-Jul-27 22:24N 33°11' E 013°10'1213.7
2015-Jul-27 21:33N 33°11' E 013°23'1413.8
2015-Jul-27 20:33N 33°11' E 013°40'1413.8
2015-Jul-27 19:33N 33°11' E 013°56'1413.8
2015-Jul-27 18:31N 33°11' E 014°14'1313.9
2015-Jul-27 17:33N 33°12' E 014°29'1414.0
2015-Jul-27 16:33N 33°12' E 014°46'1414.1
2015-Jul-27 15:33N 33°12' E 015°03'1414.3
2015-Jul-27 14:33N 33°12' E 015°20'1414.4
2015-Jul-27 13:33N 33°12' E 015°37'1414.3
2015-Jul-27 12:33N 33°12' E 015°54'1414.3
2015-Jul-27 11:33N 33°12' E 016°11'1414.1
2015-Jul-27 10:34N 33°12' E 016°28'1413.7
2015-Jul-27 09:34N 33°12' E 016°45'1313.3
2015-Jul-27 08:34N 33°12' E 017°01'1313.4
2015-Jul-27 07:34N 33°12' E 017°17'  
2015-Jul-24 06:11N 35°32' E 023°18'2213.6
2015-Jul-24 04:33N 35°52' E 023°31'6114.8
2015-Jul-24 00:25N 36°49' E 023°58'1714.9
2015-Jul-23 23:16N 37°05' E 024°07'1014.4
2015-Jul-23 22:33N 37°14' E 024°11'1615.0
2015-Jul-23 21:27N 37°29' E 024°19'1414.3
2015-Jul-23 20:30N 37°41' E 024°28'1313.7
2015-Jul-23 19:33N 37°54' E 024°33'  
2015-Jul-21 13:30N 40°51' E 029°16'  
Track history (hours):
 
Tides and Currents Weather Stations Pressure Air Temp Water Temp Dewpoint Dewpoint Depression Visibility Wind Speed Wind Dir Waves Ship Positions

Cape Balder

Last reported at 2015-Jul-31 12:25 UTC. Time now 2015-Jul-31 13:21 UTC.
Position N 33°21' E 014°43'.

Length 274 m; draft 9.1 m.

Type: Ship. MMSI: 538005854.

Date/timePositionNaut miles runAvg speedWind from/ knotsBaromVisibWave heightAir tempDewpointWater temp
2015-Jul-31 12:25N 33°21' E 014°43'8 8.6
2015-Jul-31 11:32N 33°21' E 014°34'9 9.0
2015-Jul-31 10:32N 33°22' E 014°24'1111.1
2015-Jul-31 09:33N 33°19' E 014°36'1414.1
2015-Jul-31 08:33N 33°19' E 014°53'8 8.6
2015-Jul-31 07:33N 33°19' E 015°03'115 7.6
2015-Jul-30 16:32N 32°60' E 012°48'8 7.9
2015-Jul-30 15:31N 32°54' E 012°42'5 5.6
2015-Jul-30 14:33N 32°48' E 012°40'1 0.8
2015-Jul-30 13:34N 32°48' E 012°41'0 0.2
2015-Jul-30 12:32N 32°48' E 012°41'0 0.0
2015-Jul-30 11:29N 32°48' E 012°41'0 0.0
2015-Jul-30 10:19N 32°48' E 012°41'0 0.0
2015-Jul-30 08:18N 32°48' E 012°41'0 0.0
2015-Jul-30 07:27N 32°48' E 012°41'0 0.0
2015-Jul-30 06:33N 32°48' E 012°41'0 0.0
2015-Jul-30 05:32N 32°48' E 012°41'0 0.0
2015-Jul-30 04:26N 32°48' E 012°41'0 0.0
2015-Jul-30 03:31N 32°48' E 012°41'0 0.0
2015-Jul-30 02:31N 32°48' E 012°41'0 0.0
2015-Jul-29 16:30N 32°48' E 012°41'0 0.0
2015-Jul-29 15:29N 32°48' E 012°41'0 0.0
2015-Jul-29 14:32N 32°48' E 012°41'0 0.0
2015-Jul-29 13:31N 32°48' E 012°41'0 0.0
2015-Jul-29 12:31N 32°48' E 012°41'0 0.0
2015-Jul-29 11:31N 32°48' E 012°41'0 0.0
2015-Jul-29 10:33N 32°48' E 012°41'1 0.9
2015-Jul-29 09:33N 32°48' E 012°40'1 0.5
2015-Jul-29 06:32N 32°50' E 012°39'0 0.0
2015-Jul-29 04:19N 32°50' E 012°39'0 0.0
2015-Jul-29 03:27N 32°50' E 012°39'0 0.0
2015-Jul-29 02:30N 32°50' E 012°39'0 0.1
2015-Jul-29 00:29N 32°50' E 012°39'0 0.1
2015-Jul-28 22:23N 32°50' E 012°39'18 9.7
2015-Jul-28 20:31N 32°54' E 012°19'3 1.5
2015-Jul-28 18:22N 32°54' E 012°15'1 0.9
2015-Jul-28 17:33N 32°54' E 012°14'0 0.0
2015-Jul-28 16:33N 32°54' E 012°14'0 0.0
2015-Jul-28 15:29N 32°54' E 012°14'0 0.0
2015-Jul-28 14:14N 32°54' E 012°14'0 0.0
2015-Jul-28 13:31N 32°54' E 012°14'0 0.0
2015-Jul-28 12:28N 32°54' E 012°14'0 0.0
2015-Jul-28 11:31N 32°54' E 012°14'0 0.0
2015-Jul-28 10:33N 32°54' E 012°14'0 0.0
2015-Jul-28 09:33N 32°54' E 012°14'0 0.2
2015-Jul-28 08:33N 32°54' E 012°14'1 0.7
2015-Jul-28 07:32N 32°55' E 012°14'1 1.1
2015-Jul-28 06:33N 32°56' E 012°15'0 0.3
2015-Jul-28 05:33N 32°56' E 012°15'1 1.0
2015-Jul-28 04:33N 32°56' E 012°16'5 4.8
2015-Jul-28 03:31N 32°58' E 012°21'8 7.9
2015-Jul-28 02:33N 33°02' E 012°29'8 7.5
2015-Jul-28 01:33N 33°04' E 012°38'15 7.5
2015-Jul-27 23:33N 33°08' E 012°55'1210.6
2015-Jul-27 22:24N 33°11' E 013°10'1213.7
2015-Jul-27 21:33N 33°11' E 013°23'1413.8
2015-Jul-27 20:33N 33°11' E 013°40'1413.8
2015-Jul-27 19:33N 33°11' E 013°56'1413.8
2015-Jul-27 18:31N 33°11' E 014°14'1313.9
2015-Jul-27 17:33N 33°12' E 014°29'1414.0
2015-Jul-27 16:33N 33°12' E 014°46'1414.1
2015-Jul-27 15:33N 33°12' E 015°03'1414.3
2015-Jul-27 14:33N 33°12' E 015°20'1414.4
2015-Jul-27 13:33N 33°12' E 015°37'1414.3
2015-Jul-27 12:33N 33°12' E 015°54'1414.3
2015-Jul-27 11:33N 33°12' E 016°11'1414.1
2015-Jul-27 10:34N 33°12' E 016°28'1413.7
2015-Jul-27 09:34N 33°12' E 016°45'1313.3
2015-Jul-27 08:34N 33°12' E 017°01'1313.4
2015-Jul-27 07:34N 33°12' E 017°17'  
2015-Jul-24 06:11N 35°32' E 023°18'2213.6
2015-Jul-24 04:33N 35°52' E 023°31'6114.8
2015-Jul-24 00:25N 36°49' E 023°58'1714.9
2015-Jul-23 23:16N 37°05' E 024°07'1014.4
2015-Jul-23 22:33N 37°14' E 024°11'1615.0
2015-Jul-23 21:27N 37°29' E 024°19'1414.3
2015-Jul-23 20:30N 37°41' E 024°28'1313.7
2015-Jul-23 19:33N 37°54' E 024°33'  
2015-Jul-21 13:30N 40°51' E 029°16'  

Dump ship's entire track history